createdAt,value
2019-05-05T00:02:25.171Z,98669.23
2019-05-05T00:05:15.516Z,98669.89
2019-05-05T00:07:46.272Z,98681.13
2019-05-05T00:10:25.365Z,98680.58
2019-05-05T00:13:15.005Z,98678.67
2019-05-05T00:16:04.514Z,98681.06
2019-05-05T00:18:34.779Z,98683.41
2019-05-05T00:21:05.357Z,98683.89
2019-05-05T00:23:35.893Z,98693.06
2019-05-05T00:26:06.405Z,98687.84
2019-05-05T00:28:37.029Z,98683.69
2019-05-05T00:31:07.622Z,98684.63
2019-05-05T00:33:38.253Z,98682.03
2019-05-05T00:36:08.823Z,98679.55
2019-05-05T00:38:39.430Z,98694.14
2019-05-05T00:41:10.086Z,98691.52
2019-05-05T00:43:40.720Z,98700.06
2019-05-05T00:46:17.978Z,98699.61
2019-05-05T00:48:48.613Z,98701.30
2019-05-05T00:51:19.203Z,98698.57
2019-05-05T00:53:49.734Z,98698.53
2019-05-05T00:56:20.199Z,98697.98
2019-05-05T00:58:56.232Z,98712.16
2019-05-05T01:01:45.688Z,98705.77
2019-05-05T01:04:18.738Z,98708.26
2019-05-05T01:06:49.603Z,98703.41
2019-05-05T01:09:22.842Z,98707.25
2019-05-05T01:11:55.013Z,98702.48
2019-05-05T01:14:25.667Z,98707.21
2019-05-05T01:16:56.298Z,98718.77
2019-05-05T01:19:26.998Z,98720.95
2019-05-05T01:21:57.548Z,98722.40
2019-05-05T01:24:28.128Z,98728.35
2019-05-05T01:26:58.821Z,98729.64
2019-05-05T01:29:29.282Z,98735.95
2019-05-05T01:32:01.573Z,98737.36
2019-05-05T01:34:36.349Z,98741.09
2019-05-05T01:37:16.827Z,98743.16
2019-05-05T01:40:06.171Z,98746.05
2019-05-05T01:42:36.898Z,98749.94
2019-05-05T01:45:07.879Z,98747.77
2019-05-05T01:47:39.809Z,98749.47
2019-05-05T01:50:18.231Z,98755.08
2019-05-05T01:52:42.695Z,98751.14
2019-05-05T01:55:14.703Z,98746.45
2019-05-05T01:57:45.859Z,98752.69
2019-05-05T02:00:16.653Z,98752.63
2019-05-05T02:02:47.208Z,98746.13
2019-05-05T02:05:17.825Z,98746.34
2019-05-05T02:07:48.423Z,98746.67
2019-05-05T02:10:19.110Z,98751.45
2019-05-05T02:12:49.759Z,98744.37
2019-05-05T02:15:20.348Z,98751.20
2019-05-05T02:17:50.900Z,98752.73
2019-05-05T02:20:45.085Z,98758.42
2019-05-05T02:23:17.388Z,98760.55
2019-05-05T02:25:48.432Z,98766.98
2019-05-05T02:28:19.079Z,98764.56
2019-05-05T02:30:56.764Z,98773.59
2019-05-05T02:33:27.364Z,98784.41
2019-05-05T02:35:57.875Z,98785.98
2019-05-05T02:38:28.471Z,98780.69
2019-05-05T02:40:59.314Z,98787.69
2019-05-05T02:43:30.762Z,98785.66
2019-05-05T02:46:18.474Z,98782.63
2019-05-05T02:48:51.180Z,98785.17
2019-05-05T02:51:25.659Z,98779.02
2019-05-05T02:53:59.839Z,98781.56
2019-05-05T02:56:38.299Z,98791.27
2019-05-05T02:59:14.693Z,98791.85
2019-05-05T03:01:49.762Z,98799.63
2019-05-05T03:04:20.995Z,98798.09
2019-05-05T03:06:54.612Z,98803.42
2019-05-05T03:09:27.631Z,98797.04
2019-05-05T03:12:01.750Z,98800.64
2019-05-05T03:14:34.232Z,98799.63
2019-05-05T03:17:11.540Z,98804.22
2019-05-05T03:19:44.319Z,98801.62
2019-05-05T03:22:14.960Z,98814.25
2019-05-05T03:24:45.817Z,98826.21
2019-05-05T03:27:16.621Z,98829.22
2019-05-05T03:29:48.107Z,98822.89
2019-05-05T03:32:18.983Z,98828.60
2019-05-05T03:34:50.092Z,98833.67
2019-05-05T03:37:20.962Z,98835.70
2019-05-05T03:39:57.660Z,98836.34
2019-05-05T03:42:47.424Z,98825.58
2019-05-05T03:45:36.843Z,98836.34
2019-05-05T03:48:07.602Z,98840.66
2019-05-05T03:50:38.200Z,98850.62
2019-05-05T03:53:08.771Z,98856.86
2019-05-05T03:55:39.297Z,98869.91
2019-05-05T03:58:09.790Z,98875.78
2019-05-05T04:01:20.630Z,98876.27
2019-05-05T04:03:51.201Z,98872.05
2019-05-05T04:06:37.444Z,98874.61
2019-05-05T04:09:09.473Z,98878.52
2019-05-05T04:11:40.114Z,98878.95
2019-05-05T04:14:11.690Z,98873.19
2019-05-05T04:16:48.274Z,98875.75
2019-05-05T04:19:20.054Z,98880.22
2019-05-05T04:21:50.553Z,98876.39
2019-05-05T04:24:21.143Z,98873.30
2019-05-05T04:26:51.749Z,98876.44
2019-05-05T04:29:24.282Z,98880.02
2019-05-05T04:31:54.602Z,98882.75
2019-05-05T04:34:25.185Z,98889.09
2019-05-05T04:36:55.828Z,98907.02
2019-05-05T04:39:26.406Z,98905.09
2019-05-05T04:41:56.899Z,98910.32
2019-05-05T04:44:27.478Z,98912.77
2019-05-05T04:47:03.787Z,98911.80
2019-05-05T04:49:46.018Z,98921.57
2019-05-05T04:52:17.457Z,98924.08
2019-05-05T04:54:49.873Z,98925.98
2019-05-05T04:57:20.522Z,98933.52
2019-05-05T04:59:54.020Z,98926.73
2019-05-05T05:02:43.768Z,98936.40
2019-05-05T05:05:33.824Z,98929.94
2019-05-05T05:08:04.439Z,98928.17
2019-05-05T05:10:35.018Z,98923.75
2019-05-05T05:13:05.598Z,98928.17
2019-05-05T05:15:36.131Z,98933.30
2019-05-05T05:18:15.038Z,98932.50
2019-05-05T05:20:46.117Z,98930.86
2019-05-05T05:23:16.629Z,98937.86
2019-05-05T05:25:47.151Z,98939.71
2019-05-05T05:28:17.798Z,98944.42
2019-05-05T05:30:48.243Z,98947.10
2019-05-05T05:33:18.775Z,98939.55
2019-05-05T05:35:49.260Z,98945.08
2019-05-05T05:38:19.907Z,98951.56
2019-05-05T05:40:56.068Z,98958.12
2019-05-05T05:43:35.482Z,98964.56
2019-05-05T05:46:14.968Z,98969.86
2019-05-05T05:49:04.576Z,98974.81
2019-05-05T05:51:35.343Z,98984.98
2019-05-05T05:54:06.099Z,98982.03
2019-05-05T05:56:36.658Z,98985.19
2019-05-05T05:59:07.259Z,98990.11
2019-05-05T06:01:37.838Z,98992.61
2019-05-05T06:04:08.308Z,98999.54
2019-05-05T06:06:38.880Z,99001.41
2019-05-05T06:09:09.385Z,99001.95
2019-05-05T06:11:39.799Z,99003.63
2019-05-05T06:14:10.375Z,99011.59
2019-05-05T06:16:40.896Z,99014.27
2019-05-05T06:19:11.402Z,99016.55
2019-05-05T06:21:43.865Z,99023.88
2019-05-05T06:24:14.214Z,99015.86
2019-05-05T06:26:44.723Z,99018.86
2019-05-05T06:29:15.204Z,99017.81
2019-05-05T06:31:45.824Z,99025.23
2019-05-05T06:34:16.419Z,99029.03
2019-05-05T06:36:47.204Z,99036.23
2019-05-05T06:39:17.754Z,99040.72
2019-05-05T06:42:07.104Z,99039.64
2019-05-05T06:44:45.884Z,99045.44
2019-05-05T06:47:19.754Z,99046.25
2019-05-05T06:49:50.195Z,99051.95
2019-05-05T06:52:20.967Z,99052.81
2019-05-05T06:54:51.708Z,99056.49
2019-05-05T06:57:24.064Z,99047.38
2019-05-05T06:59:54.580Z,99057.20
2019-05-05T07:02:25.188Z,99061.67
2019-05-05T07:04:55.806Z,99066.02
2019-05-05T07:07:26.434Z,99064.25
2019-05-05T07:09:57.351Z,99067.41
2019-05-05T07:12:28.129Z,99069.19
2019-05-05T07:14:59.063Z,99069.95
2019-05-05T07:17:29.785Z,99074.26
2019-05-05T07:20:00.360Z,99088.27
2019-05-05T07:22:31.509Z,99088.63
2019-05-05T07:25:02.161Z,99095.31
2019-05-05T07:27:33.829Z,99091.09
2019-05-05T07:30:05.650Z,99086.36
2019-05-05T07:32:36.392Z,99091.80
2019-05-05T07:35:25.847Z,99087.92
2019-05-05T07:37:56.507Z,99092.55
2019-05-05T07:40:27.039Z,99096.17
2019-05-05T07:42:57.435Z,99108.92
2019-05-05T07:45:27.889Z,99109.29
2019-05-05T07:47:58.451Z,99116.64
2019-05-05T07:50:32.496Z,99110.58
2019-05-05T07:53:12.216Z,99116.67
2019-05-05T07:55:34.346Z,99109.52
2019-05-05T07:58:05.111Z,99110.67
2019-05-05T08:00:35.840Z,99107.76
2019-05-05T08:03:06.430Z,99108.55
2019-05-05T08:05:37.099Z,99108.44
2019-05-05T08:08:07.830Z,99100.44
2019-05-05T08:10:38.395Z,99106.01
2019-05-05T08:13:08.942Z,99110.58
2019-05-05T08:15:56.030Z,99107.37
2019-05-05T08:18:30.532Z,99108.59
2019-05-05T08:21:04.274Z,99115.23
2019-05-05T08:23:54.089Z,99118.02
2019-05-05T08:26:39.999Z,99116.20
2019-05-05T08:29:29.239Z,99127.52
2019-05-05T08:32:18.721Z,99129.87
2019-05-05T08:34:58.173Z,99139.32
2019-05-05T08:37:23.578Z,99138.77
2019-05-05T08:39:54.102Z,99129.80
2019-05-05T08:42:24.829Z,99137.38
2019-05-05T08:44:55.555Z,99132.09
2019-05-05T08:47:28.212Z,99132.80
2019-05-05T08:49:58.387Z,99132.98
2019-05-05T08:52:29.029Z,99129.54
2019-05-05T08:54:59.638Z,99137.08
2019-05-05T08:57:30.155Z,99139.56
2019-05-05T09:00:00.710Z,99140.34
2019-05-05T09:02:33.281Z,99141.44
2019-05-05T09:05:04.340Z,99133.39
2019-05-05T09:07:34.888Z,99137.25
2019-05-05T09:10:05.746Z,99138.83
2019-05-05T09:12:38.108Z,99132.16
2019-05-05T09:15:09.429Z,99139.15
2019-05-05T09:17:39.852Z,99131.36
2019-05-05T09:20:10.652Z,99127.98
2019-05-05T09:22:41.677Z,99123.67
2019-05-05T09:25:31.238Z,99128.03
2019-05-05T09:28:07.300Z,99121.75
2019-05-05T09:30:44.267Z,99131.45
2019-05-05T09:33:18.071Z,99132.32
2019-05-05T09:35:47.587Z,99137.50
2019-05-05T09:38:18.693Z,99135.94
2019-05-05T09:40:49.394Z,99136.86
2019-05-05T09:43:20.271Z,99138.69
2019-05-05T09:45:51.130Z,99134.23
2019-05-05T09:48:24.124Z,99142.96
2019-05-05T09:50:54.580Z,99145.16
2019-05-05T09:53:27.314Z,99149.93
2019-05-05T09:55:57.718Z,99146.61
2019-05-05T09:58:28.540Z,99135.80
2019-05-05T10:00:59.325Z,99142.50
2019-05-05T10:03:31.211Z,99129.81
2019-05-05T10:06:01.864Z,99128.40
2019-05-05T10:08:34.059Z,99128.52
2019-05-05T10:11:04.833Z,99137.11
2019-05-05T10:13:35.434Z,99145.13
2019-05-05T10:16:06.859Z,99143.95
2019-05-05T10:18:37.475Z,99156.72
2019-05-05T10:21:07.981Z,99157.55
2019-05-05T10:23:40.352Z,99150.61
2019-05-05T10:26:11.710Z,99161.05
2019-05-05T10:28:44.373Z,99164.53
2019-05-05T10:31:14.726Z,99166.48
2019-05-05T10:33:53.832Z,99158.38
2019-05-05T10:36:24.540Z,99166.33
2019-05-05T10:38:59.890Z,99154.02
2019-05-05T10:41:30.501Z,99150.00
2019-05-05T10:44:01.075Z,99158.69
2019-05-05T10:46:31.627Z,99156.25
2019-05-05T10:49:02.260Z,99159.75
2019-05-05T10:51:34.570Z,99158.12
2019-05-05T10:54:05.095Z,99161.38
2019-05-05T10:56:35.643Z,99170.87
2019-05-05T10:59:06.225Z,99172.10
2019-05-05T11:01:36.902Z,99171.41
2019-05-05T11:04:07.573Z,99176.81
2019-05-05T11:06:38.206Z,99165.92
2019-05-05T11:09:09.780Z,99172.11
2019-05-05T11:11:40.428Z,99163.30
2019-05-05T11:14:14.325Z,99170.72
2019-05-05T11:16:45.176Z,99165.64
2019-05-05T11:19:15.822Z,99165.64
2019-05-05T11:21:46.442Z,99168.89
2019-05-05T11:24:17.105Z,99166.56
2019-05-05T11:26:47.777Z,99166.59
2019-05-05T11:29:18.752Z,99164.69
2019-05-05T11:31:49.586Z,99167.71
2019-05-05T11:34:25.322Z,99168.93
2019-05-05T11:37:04.625Z,99165.53
2019-05-05T11:39:35.245Z,99164.69
2019-05-05T11:42:05.828Z,99172.66
2019-05-05T11:44:36.279Z,99172.73
2019-05-05T11:47:06.890Z,99179.58
2019-05-05T11:49:37.600Z,99179.02
2019-05-05T11:52:08.227Z,99170.06
2019-05-05T11:54:38.684Z,99166.30
2019-05-05T11:57:09.412Z,99184.61
2019-05-05T11:59:40.122Z,99182.08
2019-05-05T12:02:14.144Z,99186.13
2019-05-05T12:04:44.748Z,99187.70
2019-05-05T12:07:15.277Z,99194.10
2019-05-05T12:09:51.600Z,99181.38
2019-05-05T12:12:23.179Z,99189.61
2019-05-05T12:14:54.898Z,99184.73
2019-05-05T12:17:44.378Z,99191.76
2019-05-05T12:20:20.128Z,99188.41
2019-05-05T12:22:50.660Z,99189.11
2019-05-05T12:25:40.069Z,99199.02
2019-05-05T12:28:30.060Z,99190.64
2019-05-05T12:31:03.605Z,99202.13
2019-05-05T12:33:34.316Z,99196.53
2019-05-05T12:36:04.924Z,99195.48
2019-05-05T12:38:35.362Z,99203.59
2019-05-05T12:41:06.129Z,99194.70
2019-05-05T12:43:36.705Z,99192.22
2019-05-05T12:46:18.747Z,99190.51
2019-05-05T12:48:49.769Z,99199.00
2019-05-05T12:51:20.364Z,99194.11
2019-05-05T12:53:51.019Z,99196.23
2019-05-05T12:56:23.684Z,99183.64
2019-05-05T12:58:54.490Z,99187.34
2019-05-05T13:01:33.428Z,99188.42
2019-05-05T13:04:03.621Z,99187.50
2019-05-05T13:06:34.721Z,99190.95
2019-05-05T13:09:06.772Z,99192.27
2019-05-05T13:11:37.661Z,99184.47
2019-05-05T13:14:08.141Z,99181.86
2019-05-05T13:16:49.902Z,99189.26
2019-05-05T13:19:19.333Z,99184.84
2019-05-05T13:22:08.855Z,99191.95
2019-05-05T13:24:58.428Z,99184.89
2019-05-05T13:27:34.229Z,99184.37
2019-05-05T13:30:05.981Z,99186.78
2019-05-05T13:32:36.570Z,99181.00
2019-05-05T13:35:08.638Z,99186.22
2019-05-05T13:37:41.434Z,99181.42
2019-05-05T13:40:12.213Z,99184.40
2019-05-05T13:42:44.753Z,99178.06
2019-05-05T13:45:31.672Z,99180.98
2019-05-05T13:48:03.481Z,99174.88
2019-05-05T13:50:41.549Z,99172.81
2019-05-05T13:53:14.409Z,99176.23
2019-05-05T13:55:46.487Z,99181.10
2019-05-05T13:58:17.087Z,99186.66
2019-05-05T14:00:47.712Z,99179.91
2019-05-05T14:03:18.588Z,99181.16
2019-05-05T14:05:49.317Z,99188.53
2019-05-05T14:08:20.953Z,99184.16
2019-05-05T14:10:51.581Z,99179.35
2019-05-05T14:13:24.563Z,99187.45
2019-05-05T14:15:54.912Z,99180.75
2019-05-05T14:18:25.454Z,99186.86
2019-05-05T14:20:56.077Z,99187.58
2019-05-05T14:23:27.945Z,99190.55
2019-05-05T14:25:58.551Z,99180.24
2019-05-05T14:28:29.161Z,99189.31
2019-05-05T14:31:19.662Z,99187.18
2019-05-05T14:33:59.138Z,99181.80
2019-05-05T14:36:49.762Z,99185.71
2019-05-05T14:39:23.921Z,99175.95
2019-05-05T14:41:55.783Z,99179.50
2019-05-05T14:44:30.599Z,99183.21
2019-05-05T14:47:03.833Z,99180.89
2019-05-05T14:49:34.558Z,99181.43
2019-05-05T14:52:05.207Z,99182.47
2019-05-05T14:54:38.948Z,99175.34
2019-05-05T14:57:10.048Z,99174.94
2019-05-05T14:59:41.723Z,99172.33
2019-05-05T15:02:14.412Z,99167.28
2019-05-05T15:04:45.711Z,99169.23
2019-05-05T15:07:37.398Z,99172.92
2019-05-05T15:10:25.848Z,99171.28
2019-05-05T15:13:00.328Z,99166.52
2019-05-05T15:15:32.253Z,99171.10
2019-05-05T15:18:03.995Z,99168.02
2019-05-05T15:20:36.561Z,99164.97
2019-05-05T15:23:10.947Z,99159.69
2019-05-05T15:25:44.646Z,99160.86
2019-05-05T15:28:19.490Z,99155.73
2019-05-05T15:30:54.455Z,99166.12
2019-05-05T15:33:25.364Z,99160.98
2019-05-05T15:36:00.338Z,99158.20
2019-05-05T15:38:31.068Z,99163.72
2019-05-05T15:41:05.707Z,99159.90
2019-05-05T15:43:44.121Z,99162.05
2019-05-05T15:46:18.400Z,99160.45
2019-05-05T15:48:49.313Z,99156.53
2019-05-05T15:51:19.868Z,99167.70
2019-05-05T15:53:51.513Z,99159.16
2019-05-05T15:56:27.908Z,99165.34
2019-05-05T15:59:03.877Z,99163.53
2019-05-05T16:01:36.479Z,99167.84
2019-05-05T16:04:10.888Z,99161.18
2019-05-05T16:06:44.421Z,99160.78
2019-05-05T16:09:14.842Z,99162.55
2019-05-05T16:11:49.672Z,99165.39
2019-05-05T16:14:21.087Z,99164.09
2019-05-05T16:17:04.508Z,99165.72
2019-05-05T16:19:53.779Z,99162.08
2019-05-05T16:22:30.878Z,99168.99
2019-05-05T16:25:15.810Z,99176.23
2019-05-05T16:27:52.976Z,99166.00
2019-05-05T16:30:24.969Z,99166.61
2019-05-05T16:32:58.537Z,99170.80
2019-05-05T16:35:30.338Z,99173.00
2019-05-05T16:38:06.524Z,99170.78
2019-05-05T16:40:38.033Z,99169.24
2019-05-05T16:43:08.957Z,99165.75
2019-05-05T16:45:44.526Z,99168.19
2019-05-05T16:48:19.439Z,99169.64
2019-05-05T16:50:51.167Z,99168.05
2019-05-05T16:53:42.697Z,99168.80
2019-05-05T16:56:16.113Z,99168.72
2019-05-05T16:58:47.742Z,99170.00
2019-05-05T17:01:21.839Z,99163.95
2019-05-05T17:04:07.705Z,99165.26
2019-05-05T17:06:35.891Z,99167.12
2019-05-05T17:09:08.196Z,99174.33
2019-05-05T17:11:40.097Z,99170.52
2019-05-05T17:14:20.608Z,99168.81
2019-05-05T17:17:12.118Z,99164.58
2019-05-05T17:19:54.017Z,99168.39
2019-05-05T17:22:34.022Z,99172.27
2019-05-05T17:25:09.466Z,99171.20
2019-05-05T17:27:48.597Z,99173.58
2019-05-05T17:30:14.867Z,99175.56
2019-05-05T17:32:47.630Z,99174.03
2019-05-05T17:35:24.022Z,99174.48
2019-05-05T17:38:00.967Z,99172.04
2019-05-05T17:40:50.426Z,99177.66
2019-05-05T17:43:41.548Z,99178.42
2019-05-05T17:46:24.124Z,99176.42
2019-05-05T17:49:14.027Z,99173.52
2019-05-05T17:51:59.552Z,99182.36
2019-05-05T17:54:36.978Z,99173.92
2019-05-05T17:57:15.164Z,99183.52
2019-05-05T17:59:51.243Z,99181.57
2019-05-05T18:02:28.852Z,99185.95
2019-05-05T18:05:04.550Z,99184.81
2019-05-05T18:07:43.991Z,99189.12
2019-05-05T18:10:34.380Z,99176.67
2019-05-05T18:13:25.063Z,99187.89
2019-05-05T18:15:58.918Z,99179.56
2019-05-05T18:18:34.723Z,99181.23
2019-05-05T18:21:07.988Z,99180.27
2019-05-05T18:23:38.878Z,99185.98
2019-05-05T18:26:10.939Z,99190.04
2019-05-05T18:28:49.082Z,99193.37
2019-05-05T18:31:27.093Z,99199.30
2019-05-05T18:34:00.568Z,99198.94
2019-05-05T18:36:37.513Z,99194.23
2019-05-05T18:39:18.206Z,99202.50
2019-05-05T18:42:04.578Z,99206.16
2019-05-05T18:44:39.763Z,99201.48
2019-05-05T18:47:15.634Z,99207.44
2019-05-05T18:49:50.595Z,99206.66
2019-05-05T18:52:24.575Z,99215.00
2019-05-05T18:54:59.357Z,99216.91
2019-05-05T18:57:36.267Z,99215.53
2019-05-05T19:00:13.931Z,99219.45
2019-05-05T19:03:01.567Z,99217.13
2019-05-05T19:05:53.566Z,99215.94
2019-05-05T19:08:54.294Z,99217.47
2019-05-05T19:11:20.119Z,99217.84
2019-05-05T19:13:57.562Z,99217.11
2019-05-05T19:16:30.459Z,99223.05
2019-05-05T19:19:00.979Z,99218.30
2019-05-05T19:21:36.544Z,99220.93
2019-05-05T19:24:09.832Z,99216.28
2019-05-05T19:26:47.989Z,99217.14
2019-05-05T19:29:24.281Z,99219.44
2019-05-05T19:32:01.362Z,99219.64
2019-05-05T19:34:35.111Z,99218.98
2019-05-05T19:37:05.664Z,99219.39
2019-05-05T19:39:41.888Z,99219.50
2019-05-05T19:42:16.868Z,99218.70
2019-05-05T19:44:54.930Z,99220.26
2019-05-05T19:47:29.991Z,99223.01
2019-05-05T19:50:11.140Z,99225.27
2019-05-05T19:52:44.047Z,99215.33
2019-05-05T19:55:25.143Z,99223.63
2019-05-05T19:58:04.559Z,99220.59
2019-05-05T20:00:40.244Z,99220.55
2019-05-05T20:03:14.376Z,99224.61
2019-05-05T20:05:47.110Z,99229.66
2019-05-05T20:08:18.783Z,99228.00
2019-05-05T20:10:55.972Z,99223.47
2019-05-05T20:13:26.567Z,99224.02
2019-05-05T20:16:13.916Z,99221.28
2019-05-05T20:18:46.283Z,99218.34
2019-05-05T20:21:23.678Z,99226.61
2019-05-05T20:23:57.528Z,99231.50
2019-05-05T20:26:28.142Z,99223.52
2019-05-05T20:29:13.660Z,99223.69
2019-05-05T20:31:41.212Z,99217.92
2019-05-05T20:34:27.530Z,99214.70
2019-05-05T20:37:17.207Z,99216.26
2019-05-05T20:39:54.574Z,99218.78
2019-05-05T20:42:24.731Z,99214.76
2019-05-05T20:44:56.213Z,99214.10
2019-05-05T20:47:27.283Z,99220.85
2019-05-05T20:49:58.522Z,99210.06
2019-05-05T20:52:29.193Z,99210.75
2019-05-05T20:54:59.881Z,99213.86
2019-05-05T20:57:34.341Z,99217.92
2019-05-05T21:00:06.492Z,99216.27
2019-05-05T21:02:36.972Z,99210.50
2019-05-05T21:05:07.652Z,99206.16
2019-05-05T21:07:38.213Z,99209.95
2019-05-05T21:10:14.190Z,99207.93
2019-05-05T21:12:45.565Z,99212.48
2019-05-05T21:15:16.500Z,99211.04
2019-05-05T21:17:46.982Z,99214.40
2019-05-05T21:20:17.555Z,99221.24
2019-05-05T21:23:06.947Z,99215.83
2019-05-05T21:25:39.742Z,99218.03
2019-05-05T21:28:10.256Z,99210.66
2019-05-05T21:30:41.719Z,99206.65
2019-05-05T21:33:12.356Z,99211.67
2019-05-05T21:35:44.105Z,99208.52
2019-05-05T21:38:14.795Z,99219.59
2019-05-05T21:40:45.267Z,99217.77
2019-05-05T21:43:15.822Z,99214.45
2019-05-05T21:45:46.212Z,99218.25
2019-05-05T21:48:16.847Z,99221.77
2019-05-05T21:50:54.119Z,99219.31
2019-05-05T21:53:31.707Z,99218.68
2019-05-05T21:56:21.071Z,99220.17
2019-05-05T21:58:53.661Z,99222.95
2019-05-05T22:01:27.305Z,99221.45
2019-05-05T22:03:57.092Z,99220.06
2019-05-05T22:06:27.658Z,99217.92
2019-05-05T22:08:58.132Z,99209.22
2019-05-05T22:11:28.652Z,99210.27
2019-05-05T22:13:59.169Z,99215.14
2019-05-05T22:16:29.663Z,99208.72
2019-05-05T22:19:00.712Z,99212.19
2019-05-05T22:21:43.708Z,99213.00
2019-05-05T22:24:20.808Z,99204.76
2019-05-05T22:26:53.900Z,99210.30
2019-05-05T22:29:24.885Z,99204.27
2019-05-05T22:31:55.707Z,99203.25
2019-05-05T22:34:26.502Z,99208.95
2019-05-05T22:36:57.032Z,99206.81
2019-05-05T22:39:27.579Z,99210.94
2019-05-05T22:41:58.022Z,99210.72
2019-05-05T22:44:28.552Z,99209.97
2019-05-05T22:46:59.101Z,99211.78
2019-05-05T22:49:29.529Z,99216.38
2019-05-05T22:51:59.918Z,99205.38
2019-05-05T22:54:30.460Z,99207.48
2019-05-05T22:57:00.962Z,99214.65
2019-05-05T22:59:31.344Z,99211.03
2019-05-05T23:02:03.892Z,99210.73
2019-05-05T23:04:40.886Z,99204.70
2019-05-05T23:07:17.332Z,99207.12
2019-05-05T23:09:47.693Z,99211.33
2019-05-05T23:12:18.046Z,99214.08
2019-05-05T23:14:48.699Z,99211.78
2019-05-05T23:17:38.040Z,99214.50
2019-05-05T23:20:18.377Z,99208.73
2019-05-05T23:23:07.781Z,99206.35
2019-05-05T23:25:45.602Z,99201.58
2019-05-05T23:28:14.754Z,99200.30
2019-05-05T23:30:45.288Z,99200.66
2019-05-05T23:33:15.908Z,99197.69
2019-05-05T23:35:46.442Z,99193.84
2019-05-05T23:38:16.907Z,99191.58
2019-05-05T23:40:47.403Z,99189.50
2019-05-05T23:43:17.882Z,99190.20
2019-05-05T23:45:48.473Z,99190.70
2019-05-05T23:48:18.953Z,99197.69
2019-05-05T23:50:49.466Z,99191.65
2019-05-05T23:53:20.026Z,99193.37
2019-05-05T23:55:50.867Z,99191.91
2019-05-05T23:58:21.459Z,99200.66
